sensor_id;sensor_type;location;lat;lon;timestamp;temperature;humidity
53065;DHT22;38948;48.376;-4.312;2022-08-11T00:02:34;24.40;63.90
53065;DHT22;38948;48.376;-4.312;2022-08-11T00:05:10;24.40;63.70
53065;DHT22;38948;48.376;-4.312;2022-08-11T00:07:47;24.40;63.70
53065;DHT22;38948;48.376;-4.312;2022-08-11T00:10:20;24.40;63.80
53065;DHT22;38948;48.376;-4.312;2022-08-11T00:15:16;24.40;63.70
53065;DHT22;38948;48.376;-4.312;2022-08-11T00:17:43;24.40;63.50
53065;DHT22;38948;48.376;-4.312;2022-08-11T00:20:12;24.40;63.30
53065;DHT22;38948;48.376;-4.312;2022-08-11T00:22:41;24.40;63.40
53065;DHT22;38948;48.376;-4.312;2022-08-11T00:25:13;24.40;63.30
53065;DHT22;38948;48.376;-4.312;2022-08-11T00:27:40;24.40;63.30
53065;DHT22;38948;48.376;-4.312;2022-08-11T00:30:07;24.40;63.30
53065;DHT22;38948;48.376;-4.312;2022-08-11T00:32:35;24.40;63.20
53065;DHT22;38948;48.376;-4.312;2022-08-11T00:35:03;24.30;63.20
53065;DHT22;38948;48.376;-4.312;2022-08-11T00:37:32;24.40;63.10
53065;DHT22;38948;48.376;-4.312;2022-08-11T00:40:00;24.40;62.90
53065;DHT22;38948;48.376;-4.312;2022-08-11T00:45:24;24.30;62.80
53065;DHT22;38948;48.376;-4.312;2022-08-11T00:51:16;24.30;62.60
53065;DHT22;38948;48.376;-4.312;2022-08-11T01:03:16;24.30;62.20
53065;DHT22;38948;48.376;-4.312;2022-08-11T01:19:54;24.20;61.80
53065;DHT22;38948;48.376;-4.312;2022-08-11T01:39:53;24.20;61.50
53065;DHT22;38948;48.376;-4.312;2022-08-11T01:45:51;24.20;61.40
53065;DHT22;38948;48.376;-4.312;2022-08-11T01:51:22;24.20;61.50
53065;DHT22;38948;48.376;-4.312;2022-08-11T01:53:59;24.20;61.20
53065;DHT22;38948;48.376;-4.312;2022-08-11T02:01:44;24.20;61.10
53065;DHT22;38948;48.376;-4.312;2022-08-11T02:07:32;24.20;61.20
53065;DHT22;38948;48.376;-4.312;2022-08-11T02:10:22;24.20;61.20
53065;DHT22;38948;48.376;-4.312;2022-08-11T02:24:58;24.10;61.40
53065;DHT22;38948;48.376;-4.312;2022-08-11T02:27:35;24.10;61.50
53065;DHT22;38948;48.376;-4.312;2022-08-11T02:30:05;24.10;61.40
53065;DHT22;38948;48.376;-4.312;2022-08-11T02:32:50;24.10;61.50
53065;DHT22;38948;48.376;-4.312;2022-08-11T02:44:38;24.10;61.50
53065;DHT22;38948;48.376;-4.312;2022-08-11T02:50:24;24.00;61.50
53065;DHT22;38948;48.376;-4.312;2022-08-11T02:55:34;24.00;61.60
53065;DHT22;38948;48.376;-4.312;2022-08-11T02:58:45;24.00;61.60
53065;DHT22;38948;48.376;-4.312;2022-08-11T03:02:02;24.00;61.70
53065;DHT22;38948;48.376;-4.312;2022-08-11T03:10:31;24.00;61.80
53065;DHT22;38948;48.376;-4.312;2022-08-11T03:13:00;24.00;61.80
53065;DHT22;38948;48.376;-4.312;2022-08-11T03:15:58;24.00;61.80
53065;DHT22;38948;48.376;-4.312;2022-08-11T03:21:33;23.90;61.90
53065;DHT22;38948;48.376;-4.312;2022-08-11T03:27:12;23.90;61.90
53065;DHT22;38948;48.376;-4.312;2022-08-11T03:30:11;23.90;61.90
53065;DHT22;38948;48.376;-4.312;2022-08-11T03:35:04;23.90;61.90
53065;DHT22;38948;48.376;-4.312;2022-08-11T03:38:01;23.90;61.90
53065;DHT22;38948;48.376;-4.312;2022-08-11T03:40:57;23.90;61.90
53065;DHT22;38948;48.376;-4.312;2022-08-11T03:57:55;23.80;62.00
53065;DHT22;38948;48.376;-4.312;2022-08-11T04:06:41;23.80;62.10
53065;DHT22;38948;48.376;-4.312;2022-08-11T04:21:04;23.80;62.30
53065;DHT22;38948;48.376;-4.312;2022-08-11T04:26:41;23.70;62.30
53065;DHT22;38948;48.376;-4.312;2022-08-11T05:04:56;23.60;62.40
53065;DHT22;38948;48.376;-4.312;2022-08-11T05:13:44;23.60;62.40
53065;DHT22;38948;48.376;-4.312;2022-08-11T05:16:52;23.60;62.50
53065;DHT22;38948;48.376;-4.312;2022-08-11T05:19:37;23.60;62.50
53065;DHT22;38948;48.376;-4.312;2022-08-11T05:22:27;23.60;62.50
53065;DHT22;38948;48.376;-4.312;2022-08-11T05:25:17;23.60;62.50
53065;DHT22;38948;48.376;-4.312;2022-08-11T05:28:12;23.60;62.50
53065;DHT22;38948;48.376;-4.312;2022-08-11T05:31:00;23.60;62.50
53065;DHT22;38948;48.376;-4.312;2022-08-11T05:33:51;23.60;62.50
53065;DHT22;38948;48.376;-4.312;2022-08-11T05:37:04;23.50;62.50
53065;DHT22;38948;48.376;-4.312;2022-08-11T05:39:38;23.50;62.50
53065;DHT22;38948;48.376;-4.312;2022-08-11T05:42:24;23.50;62.60
53065;DHT22;38948;48.376;-4.312;2022-08-11T05:45:14;23.50;62.50
53065;DHT22;38948;48.376;-4.312;2022-08-11T05:47:59;23.50;62.60
53065;DHT22;38948;48.376;-4.312;2022-08-11T05:50:51;23.50;62.60
53065;DHT22;38948;48.376;-4.312;2022-08-11T05:53:52;23.50;62.60
53065;DHT22;38948;48.376;-4.312;2022-08-11T05:56:57;23.50;62.60
53065;DHT22;38948;48.376;-4.312;2022-08-11T05:59:25;23.50;62.70
53065;DHT22;38948;48.376;-4.312;2022-08-11T06:01:59;23.50;62.70
53065;DHT22;38948;48.376;-4.312;2022-08-11T06:04:25;23.50;62.70
53065;DHT22;38948;48.376;-4.312;2022-08-11T06:06:57;23.50;62.70
53065;DHT22;38948;48.376;-4.312;2022-08-11T06:09:27;23.50;62.70
53065;DHT22;38948;48.376;-4.312;2022-08-11T06:11:57;23.50;62.80
53065;DHT22;38948;48.376;-4.312;2022-08-11T06:14:24;23.50;62.80
53065;DHT22;38948;48.376;-4.312;2022-08-11T06:16:55;23.50;62.80
53065;DHT22;38948;48.376;-4.312;2022-08-11T06:19:23;23.50;62.80
53065;DHT22;38948;48.376;-4.312;2022-08-11T06:21:55;23.50;62.90
53065;DHT22;38948;48.376;-4.312;2022-08-11T06:24:21;23.50;62.80
53065;DHT22;38948;48.376;-4.312;2022-08-11T06:26:50;23.50;62.80
53065;DHT22;38948;48.376;-4.312;2022-08-11T06:29:16;23.50;63.00
53065;DHT22;38948;48.376;-4.312;2022-08-11T06:32:01;23.50;63.00
53065;DHT22;38948;48.376;-4.312;2022-08-11T06:34:32;23.50;63.00
53065;DHT22;38948;48.376;-4.312;2022-08-11T06:37:19;23.50;63.00
53065;DHT22;38948;48.376;-4.312;2022-08-11T06:42:52;23.50;63.00
53065;DHT22;38948;48.376;-4.312;2022-08-11T06:48:19;23.50;63.10
53065;DHT22;38948;48.376;-4.312;2022-08-11T06:50:56;23.50;63.00
53065;DHT22;38948;48.376;-4.312;2022-08-11T06:56:21;23.50;63.10
53065;DHT22;38948;48.376;-4.312;2022-08-11T06:59:06;23.50;63.00
53065;DHT22;38948;48.376;-4.312;2022-08-11T07:04:48;23.50;63.00
53065;DHT22;38948;48.376;-4.312;2022-08-11T07:13:42;23.50;63.00
53065;DHT22;38948;48.376;-4.312;2022-08-11T07:16:27;23.60;63.00
53065;DHT22;38948;48.376;-4.312;2022-08-11T07:19:07;23.60;63.00
53065;DHT22;38948;48.376;-4.312;2022-08-11T07:21:54;23.60;63.00
53065;DHT22;38948;48.376;-4.312;2022-08-11T07:25:02;23.60;63.00
53065;DHT22;38948;48.376;-4.312;2022-08-11T07:28:02;23.60;63.00
53065;DHT22;38948;48.376;-4.312;2022-08-11T07:30:47;23.70;62.90
53065;DHT22;38948;48.376;-4.312;2022-08-11T07:33:31;23.70;62.90
53065;DHT22;38948;48.376;-4.312;2022-08-11T07:36:04;23.70;62.90
53065;DHT22;38948;48.376;-4.312;2022-08-11T07:38:52;23.70;62.90
53065;DHT22;38948;48.376;-4.312;2022-08-11T07:41:22;23.70;62.80
53065;DHT22;38948;48.376;-4.312;2022-08-11T07:43:57;23.80;62.80
53065;DHT22;38948;48.376;-4.312;2022-08-11T07:46:43;23.80;62.80
53065;DHT22;38948;48.376;-4.312;2022-08-11T07:49:34;23.80;62.70
53065;DHT22;38948;48.376;-4.312;2022-08-11T07:52:20;23.80;62.70
53065;DHT22;38948;48.376;-4.312;2022-08-11T07:54:56;23.80;62.70
53065;DHT22;38948;48.376;-4.312;2022-08-11T07:57:24;23.80;62.70
53065;DHT22;38948;48.376;-4.312;2022-08-11T08:00:09;23.90;62.70
53065;DHT22;38948;48.376;-4.312;2022-08-11T08:02:54;23.90;62.60
53065;DHT22;38948;48.376;-4.312;2022-08-11T08:05:39;23.90;62.60
53065;DHT22;38948;48.376;-4.312;2022-08-11T08:08:23;23.90;62.60
53065;DHT22;38948;48.376;-4.312;2022-08-11T08:11:10;23.90;62.50
53065;DHT22;38948;48.376;-4.312;2022-08-11T08:13:55;24.00;62.40
53065;DHT22;38948;48.376;-4.312;2022-08-11T08:16:40;24.00;62.40
53065;DHT22;38948;48.376;-4.312;2022-08-11T08:19:26;24.00;62.40
53065;DHT22;38948;48.376;-4.312;2022-08-11T08:21:53;24.00;62.30
53065;DHT22;38948;48.376;-4.312;2022-08-11T08:24:20;24.00;62.30
53065;DHT22;38948;48.376;-4.312;2022-08-11T08:26:49;24.00;62.30
53065;DHT22;38948;48.376;-4.312;2022-08-11T08:29:30;24.10;62.20
53065;DHT22;38948;48.376;-4.312;2022-08-11T08:32:16;24.10;62.20
53065;DHT22;38948;48.376;-4.312;2022-08-11T08:34:42;24.10;62.30
53065;DHT22;38948;48.376;-4.312;2022-08-11T08:37:09;24.10;62.20
53065;DHT22;38948;48.376;-4.312;2022-08-11T08:39:35;24.20;62.20
53065;DHT22;38948;48.376;-4.312;2022-08-11T08:42:12;24.20;62.20
53065;DHT22;38948;48.376;-4.312;2022-08-11T08:44:48;24.20;62.10
53065;DHT22;38948;48.376;-4.312;2022-08-11T08:47:17;24.20;62.00
53065;DHT22;38948;48.376;-4.312;2022-08-11T08:49:49;24.20;62.00
53065;DHT22;38948;48.376;-4.312;2022-08-11T08:52:22;24.20;62.00
53065;DHT22;38948;48.376;-4.312;2022-08-11T08:54:51;24.30;62.00
53065;DHT22;38948;48.376;-4.312;2022-08-11T08:57:21;24.30;62.00
53065;DHT22;38948;48.376;-4.312;2022-08-11T08:59:49;24.30;62.00
53065;DHT22;38948;48.376;-4.312;2022-08-11T09:02:17;24.30;61.90
53065;DHT22;38948;48.376;-4.312;2022-08-11T09:04:47;24.30;61.90
53065;DHT22;38948;48.376;-4.312;2022-08-11T09:07:17;24.30;61.80
53065;DHT22;38948;48.376;-4.312;2022-08-11T09:09:48;24.40;61.80
53065;DHT22;38948;48.376;-4.312;2022-08-11T09:12:17;24.40;61.80
53065;DHT22;38948;48.376;-4.312;2022-08-11T09:14:46;24.40;61.70
53065;DHT22;38948;48.376;-4.312;2022-08-11T09:17:26;24.40;61.80
53065;DHT22;38948;48.376;-4.312;2022-08-11T09:20:20;24.40;61.70
53065;DHT22;38948;48.376;-4.312;2022-08-11T09:22:47;24.40;61.70
53065;DHT22;38948;48.376;-4.312;2022-08-11T09:25:32;24.40;61.60
53065;DHT22;38948;48.376;-4.312;2022-08-11T09:28:18;24.50;61.70
53065;DHT22;38948;48.376;-4.312;2022-08-11T09:30:48;24.50;61.40
53065;DHT22;38948;48.376;-4.312;2022-08-11T09:33:27;24.50;61.20
53065;DHT22;38948;48.376;-4.312;2022-08-11T09:35:53;24.50;61.30
53065;DHT22;38948;48.376;-4.312;2022-08-11T09:38:22;24.60;61.40
53065;DHT22;38948;48.376;-4.312;2022-08-11T09:41:09;24.60;61.20
53065;DHT22;38948;48.376;-4.312;2022-08-11T09:43:39;24.60;61.30
53065;DHT22;38948;48.376;-4.312;2022-08-11T09:46:27;24.60;60.90
53065;DHT22;38948;48.376;-4.312;2022-08-11T09:48:56;24.60;60.60
53065;DHT22;38948;48.376;-4.312;2022-08-11T09:51:24;24.60;60.20
53065;DHT22;38948;48.376;-4.312;2022-08-11T09:53:51;24.70;60.10
53065;DHT22;38948;48.376;-4.312;2022-08-11T09:56:19;24.70;59.90
53065;DHT22;38948;48.376;-4.312;2022-08-11T09:59:05;24.70;59.80
53065;DHT22;38948;48.376;-4.312;2022-08-11T10:01:51;24.70;59.60
53065;DHT22;38948;48.376;-4.312;2022-08-11T10:04:26;24.70;59.40
53065;DHT22;38948;48.376;-4.312;2022-08-11T10:06:58;24.70;59.20
53065;DHT22;38948;48.376;-4.312;2022-08-11T10:09:33;24.80;58.90
53065;DHT22;38948;48.376;-4.312;2022-08-11T10:12:01;24.80;59.00
53065;DHT22;38948;48.376;-4.312;2022-08-11T10:14:29;24.80;58.80
53065;DHT22;38948;48.376;-4.312;2022-08-11T10:17:26;24.80;58.70
53065;DHT22;38948;48.376;-4.312;2022-08-11T10:19:56;24.80;58.50
53065;DHT22;38948;48.376;-4.312;2022-08-11T10:22:23;24.80;58.20
53065;DHT22;38948;48.376;-4.312;2022-08-11T10:25:08;24.90;58.20
53065;DHT22;38948;48.376;-4.312;2022-08-11T10:27:53;24.90;57.70
53065;DHT22;38948;48.376;-4.312;2022-08-11T10:30:25;24.90;57.40
53065;DHT22;38948;48.376;-4.312;2022-08-11T10:33:12;24.90;57.50
53065;DHT22;38948;48.376;-4.312;2022-08-11T10:35:57;24.90;57.60
53065;DHT22;38948;48.376;-4.312;2022-08-11T10:38:24;24.90;57.50
53065;DHT22;38948;48.376;-4.312;2022-08-11T10:40:52;24.90;57.20
53065;DHT22;38948;48.376;-4.312;2022-08-11T10:43:39;25.00;57.30
53065;DHT22;38948;48.376;-4.312;2022-08-11T10:46:10;25.00;57.20
53065;DHT22;38948;48.376;-4.312;2022-08-11T10:48:56;25.00;57.20
53065;DHT22;38948;48.376;-4.312;2022-08-11T10:51:24;25.00;57.20
53065;DHT22;38948;48.376;-4.312;2022-08-11T10:54:09;25.10;56.90
53065;DHT22;38948;48.376;-4.312;2022-08-11T10:56:54;25.10;56.70
53065;DHT22;38948;48.376;-4.312;2022-08-11T10:59:39;25.10;56.90
53065;DHT22;38948;48.376;-4.312;2022-08-11T11:02:14;25.10;57.20
53065;DHT22;38948;48.376;-4.312;2022-08-11T11:04:51;25.10;56.80
53065;DHT22;38948;48.376;-4.312;2022-08-11T11:07:26;25.20;56.60
53065;DHT22;38948;48.376;-4.312;2022-08-11T11:09:57;25.20;56.40
53065;DHT22;38948;48.376;-4.312;2022-08-11T11:12:33;25.20;56.40
53065;DHT22;38948;48.376;-4.312;2022-08-11T11:15:20;25.20;56.60
53065;DHT22;38948;48.376;-4.312;2022-08-11T11:18:08;25.20;56.60
53065;DHT22;38948;48.376;-4.312;2022-08-11T11:23:15;25.20;56.80
53065;DHT22;38948;48.376;-4.312;2022-08-11T11:29:28;25.30;56.80
53065;DHT22;38948;48.376;-4.312;2022-08-11T11:31:48;25.30;56.90
53065;DHT22;38948;48.376;-4.312;2022-08-11T11:37:00;25.30;56.60
53065;DHT22;38948;48.376;-4.312;2022-08-11T11:39:27;25.40;56.70
53065;DHT22;38948;48.376;-4.312;2022-08-11T11:42:05;25.40;56.90
53065;DHT22;38948;48.376;-4.312;2022-08-11T11:44:32;25.40;56.60
53065;DHT22;38948;48.376;-4.312;2022-08-11T11:47:00;25.40;56.30
53065;DHT22;38948;48.376;-4.312;2022-08-11T11:49:28;25.40;55.70
53065;DHT22;38948;48.376;-4.312;2022-08-11T11:51:56;25.40;55.90
53065;DHT22;38948;48.376;-4.312;2022-08-11T11:54:27;25.50;55.90
53065;DHT22;38948;48.376;-4.312;2022-08-11T11:56:56;25.50;56.00
53065;DHT22;38948;48.376;-4.312;2022-08-11T11:59:43;25.50;56.10
53065;DHT22;38948;48.376;-4.312;2022-08-11T12:02:27;25.50;56.30
53065;DHT22;38948;48.376;-4.312;2022-08-11T12:04:54;25.50;55.90
53065;DHT22;38948;48.376;-4.312;2022-08-11T12:07:20;25.50;56.00
53065;DHT22;38948;48.376;-4.312;2022-08-11T12:10:06;25.60;56.20
53065;DHT22;38948;48.376;-4.312;2022-08-11T12:12:32;25.60;56.10
53065;DHT22;38948;48.376;-4.312;2022-08-11T12:15:17;25.60;56.30
53065;DHT22;38948;48.376;-4.312;2022-08-11T12:17:45;25.60;56.40
53065;DHT22;38948;48.376;-4.312;2022-08-11T12:20:11;25.60;56.50
53065;DHT22;38948;48.376;-4.312;2022-08-11T12:22:40;25.60;56.70
53065;DHT22;38948;48.376;-4.312;2022-08-11T12:25:24;25.70;56.70
53065;DHT22;38948;48.376;-4.312;2022-08-11T12:28:08;25.70;56.50
53065;DHT22;38948;48.376;-4.312;2022-08-11T12:30:35;25.70;57.00
53065;DHT22;38948;48.376;-4.312;2022-08-11T12:33:01;25.80;56.50
53065;DHT22;38948;48.376;-4.312;2022-08-11T12:35:29;25.80;56.70
53065;DHT22;38948;48.376;-4.312;2022-08-11T12:37:56;25.90;56.20
53065;DHT22;38948;48.376;-4.312;2022-08-11T12:40:28;25.90;55.90
53065;DHT22;38948;48.376;-4.312;2022-08-11T12:43:17;25.90;56.30
53065;DHT22;38948;48.376;-4.312;2022-08-11T12:46:28;26.00;56.00
53065;DHT22;38948;48.376;-4.312;2022-08-11T12:48:56;26.00;56.30
53065;DHT22;38948;48.376;-4.312;2022-08-11T12:51:46;26.00;56.40
53065;DHT22;38948;48.376;-4.312;2022-08-11T13:00:13;26.00;56.40
53065;DHT22;38948;48.376;-4.312;2022-08-11T13:02:58;26.00;56.40
53065;DHT22;38948;48.376;-4.312;2022-08-11T13:05:44;26.10;56.60
53065;DHT22;38948;48.376;-4.312;2022-08-11T13:08:11;26.10;56.80
53065;DHT22;38948;48.376;-4.312;2022-08-11T13:10:40;26.10;56.80
53065;DHT22;38948;48.376;-4.312;2022-08-11T13:13:24;26.10;56.60
53065;DHT22;38948;48.376;-4.312;2022-08-11T13:15:51;26.10;56.90
53065;DHT22;38948;48.376;-4.312;2022-08-11T13:18:22;26.10;56.80
53065;DHT22;38948;48.376;-4.312;2022-08-11T13:20:52;26.10;56.80
53065;DHT22;38948;48.376;-4.312;2022-08-11T13:23:19;26.10;56.90
53065;DHT22;38948;48.376;-4.312;2022-08-11T13:25:45;26.20;56.90
53065;DHT22;38948;48.376;-4.312;2022-08-11T13:28:11;26.20;56.90
53065;DHT22;38948;48.376;-4.312;2022-08-11T13:30:37;26.20;57.10
53065;DHT22;38948;48.376;-4.312;2022-08-11T13:33:22;26.20;57.30
53065;DHT22;38948;48.376;-4.312;2022-08-11T13:35:51;26.20;57.40
53065;DHT22;38948;48.376;-4.312;2022-08-11T13:38:19;26.20;57.60
53065;DHT22;38948;48.376;-4.312;2022-08-11T13:40:48;26.20;57.70
53065;DHT22;38948;48.376;-4.312;2022-08-11T13:43:14;26.30;57.80
53065;DHT22;38948;48.376;-4.312;2022-08-11T13:45:42;26.30;57.90
53065;DHT22;38948;48.376;-4.312;2022-08-11T13:48:11;26.30;58.10
53065;DHT22;38948;48.376;-4.312;2022-08-11T13:50:38;26.30;58.10
53065;DHT22;38948;48.376;-4.312;2022-08-11T13:53:24;26.30;58.20
53065;DHT22;38948;48.376;-4.312;2022-08-11T13:55:51;26.40;58.20
53065;DHT22;38948;48.376;-4.312;2022-08-11T13:58:17;26.40;58.20
53065;DHT22;38948;48.376;-4.312;2022-08-11T14:00:48;26.40;58.10
53065;DHT22;38948;48.376;-4.312;2022-08-11T14:03:18;26.40;58.10
53065;DHT22;38948;48.376;-4.312;2022-08-11T14:05:50;26.40;58.00
53065;DHT22;38948;48.376;-4.312;2022-08-11T14:08:29;26.40;58.00
53065;DHT22;38948;48.376;-4.312;2022-08-11T14:11:00;26.40;57.90
53065;DHT22;38948;48.376;-4.312;2022-08-11T14:13:45;26.40;57.90
53065;DHT22;38948;48.376;-4.312;2022-08-11T14:16:31;26.50;57.80
53065;DHT22;38948;48.376;-4.312;2022-08-11T14:19:06;26.50;57.80
53065;DHT22;38948;48.376;-4.312;2022-08-11T14:21:38;26.50;57.80
53065;DHT22;38948;48.376;-4.312;2022-08-11T14:24:25;26.50;57.80
53065;DHT22;38948;48.376;-4.312;2022-08-11T14:26:52;26.50;57.90
53065;DHT22;38948;48.376;-4.312;2022-08-11T14:29:20;26.50;57.80
53065;DHT22;38948;48.376;-4.312;2022-08-11T14:32:07;26.50;57.70
53065;DHT22;38948;48.376;-4.312;2022-08-11T14:34:35;26.50;57.40
53065;DHT22;38948;48.376;-4.312;2022-08-11T14:37:06;26.50;57.40
53065;DHT22;38948;48.376;-4.312;2022-08-11T14:39:41;26.60;57.60
53065;DHT22;38948;48.376;-4.312;2022-08-11T14:42:08;26.60;57.70
53065;DHT22;38948;48.376;-4.312;2022-08-11T14:44:56;26.60;57.30
53065;DHT22;38948;48.376;-4.312;2022-08-11T14:47:45;26.60;57.40
53065;DHT22;38948;48.376;-4.312;2022-08-11T14:50:14;26.60;57.20
53065;DHT22;38948;48.376;-4.312;2022-08-11T14:52:47;26.60;57.50
53065;DHT22;38948;48.376;-4.312;2022-08-11T14:55:14;26.60;57.60
53065;DHT22;38948;48.376;-4.312;2022-08-11T14:58:00;26.60;57.40
53065;DHT22;38948;48.376;-4.312;2022-08-11T15:00:27;26.60;57.10
53065;DHT22;38948;48.376;-4.312;2022-08-11T15:02:54;26.60;57.20
53065;DHT22;38948;48.376;-4.312;2022-08-11T15:05:38;26.60;57.10
53065;DHT22;38948;48.376;-4.312;2022-08-11T15:08:06;26.70;57.00
53065;DHT22;38948;48.376;-4.312;2022-08-11T15:10:32;26.70;56.90
53065;DHT22;38948;48.376;-4.312;2022-08-11T15:12:59;26.70;57.20
53065;DHT22;38948;48.376;-4.312;2022-08-11T15:15:26;26.70;56.70
53065;DHT22;38948;48.376;-4.312;2022-08-11T15:18:12;26.70;56.70
53065;DHT22;38948;48.376;-4.312;2022-08-11T15:20:42;26.70;56.80
53065;DHT22;38948;48.376;-4.312;2022-08-11T15:23:27;26.70;56.60
53065;DHT22;38948;48.376;-4.312;2022-08-11T15:26:15;26.70;56.50
53065;DHT22;38948;48.376;-4.312;2022-08-11T15:28:48;26.70;56.50
53065;DHT22;38948;48.376;-4.312;2022-08-11T15:31:36;26.70;56.80
53065;DHT22;38948;48.376;-4.312;2022-08-11T15:34:26;26.70;56.50
53065;DHT22;38948;48.376;-4.312;2022-08-11T15:37:14;26.70;56.40
53065;DHT22;38948;48.376;-4.312;2022-08-11T15:40:34;26.80;56.10
53065;DHT22;38948;48.376;-4.312;2022-08-11T15:43:27;26.80;56.30
53065;DHT22;38948;48.376;-4.312;2022-08-11T15:46:22;26.80;56.20
53065;DHT22;38948;48.376;-4.312;2022-08-11T15:48:58;26.80;56.50
53065;DHT22;38948;48.376;-4.312;2022-08-11T15:51:50;26.80;56.30
53065;DHT22;38948;48.376;-4.312;2022-08-11T15:54:24;26.80;56.30
53065;DHT22;38948;48.376;-4.312;2022-08-11T15:56:52;26.80;56.60
53065;DHT22;38948;48.376;-4.312;2022-08-11T15:59:20;26.80;56.10
53065;DHT22;38948;48.376;-4.312;2022-08-11T16:02:08;26.80;56.40
53065;DHT22;38948;48.376;-4.312;2022-08-11T16:04:54;26.80;55.90
53065;DHT22;38948;48.376;-4.312;2022-08-11T16:07:25;26.90;56.00
53065;DHT22;38948;48.376;-4.312;2022-08-11T16:09:55;26.90;56.00
53065;DHT22;38948;48.376;-4.312;2022-08-11T16:12:24;26.90;56.40
53065;DHT22;38948;48.376;-4.312;2022-08-11T16:14:57;26.90;55.80
53065;DHT22;38948;48.376;-4.312;2022-08-11T16:17:45;26.90;55.70
53065;DHT22;38948;48.376;-4.312;2022-08-11T16:20:13;26.90;55.40
53065;DHT22;38948;48.376;-4.312;2022-08-11T16:22:40;26.90;55.30
53065;DHT22;38948;48.376;-4.312;2022-08-11T16:25:20;27.00;56.00
53065;DHT22;38948;48.376;-4.312;2022-08-11T16:27:58;27.00;55.60
53065;DHT22;38948;48.376;-4.312;2022-08-11T16:30:36;27.00;55.20
53065;DHT22;38948;48.376;-4.312;2022-08-11T16:33:05;27.00;55.10
53065;DHT22;38948;48.376;-4.312;2022-08-11T16:35:34;27.00;55.60
53065;DHT22;38948;48.376;-4.312;2022-08-11T16:38:21;27.00;54.90
53065;DHT22;38948;48.376;-4.312;2022-08-11T16:41:12;27.10;55.50
53065;DHT22;38948;48.376;-4.312;2022-08-11T16:43:42;27.10;55.50
53065;DHT22;38948;48.376;-4.312;2022-08-11T16:46:30;27.10;55.60
53065;DHT22;38948;48.376;-4.312;2022-08-11T16:49:40;27.10;55.70
53065;DHT22;38948;48.376;-4.312;2022-08-11T16:52:24;27.20;56.90
53065;DHT22;38948;48.376;-4.312;2022-08-11T16:54:52;27.20;57.00
53065;DHT22;38948;48.376;-4.312;2022-08-11T16:57:23;27.30;56.90
53065;DHT22;38948;48.376;-4.312;2022-08-11T17:00:09;27.30;56.80
53065;DHT22;38948;48.376;-4.312;2022-08-11T17:02:42;27.30;56.50
53065;DHT22;38948;48.376;-4.312;2022-08-11T17:05:31;27.40;55.70
53065;DHT22;38948;48.376;-4.312;2022-08-11T17:08:17;27.40;55.70
53065;DHT22;38948;48.376;-4.312;2022-08-11T17:11:03;27.40;55.40
53065;DHT22;38948;48.376;-4.312;2022-08-11T17:13:57;27.50;55.80
53065;DHT22;38948;48.376;-4.312;2022-08-11T17:16:31;27.50;55.30
53065;DHT22;38948;48.376;-4.312;2022-08-11T17:19:04;27.50;55.90
53065;DHT22;38948;48.376;-4.312;2022-08-11T17:21:43;27.60;56.30
53065;DHT22;38948;48.376;-4.312;2022-08-11T17:24:32;27.60;55.00
53065;DHT22;38948;48.376;-4.312;2022-08-11T17:26:59;27.60;54.70
53065;DHT22;38948;48.376;-4.312;2022-08-11T17:31:53;27.70;54.30
53065;DHT22;38948;48.376;-4.312;2022-08-11T17:34:41;27.70;54.70
53065;DHT22;38948;48.376;-4.312;2022-08-11T17:37:28;27.70;54.80
53065;DHT22;38948;48.376;-4.312;2022-08-11T17:40:00;27.70;54.80
53065;DHT22;38948;48.376;-4.312;2022-08-11T17:42:29;27.70;54.40
53065;DHT22;38948;48.376;-4.312;2022-08-11T17:45:17;27.80;54.90
53065;DHT22;38948;48.376;-4.312;2022-08-11T17:48:03;27.80;54.60
53065;DHT22;38948;48.376;-4.312;2022-08-11T17:50:49;27.80;54.30
53065;DHT22;38948;48.376;-4.312;2022-08-11T17:53:16;27.80;54.40
53065;DHT22;38948;48.376;-4.312;2022-08-11T17:56:04;27.80;54.10
53065;DHT22;38948;48.376;-4.312;2022-08-11T17:59:00;27.80;54.40
53065;DHT22;38948;48.376;-4.312;2022-08-11T18:01:47;27.80;54.10
53065;DHT22;38948;48.376;-4.312;2022-08-11T18:04:14;27.90;54.20
53065;DHT22;38948;48.376;-4.312;2022-08-11T18:06:46;27.90;54.00
53065;DHT22;38948;48.376;-4.312;2022-08-11T18:09:16;27.90;54.20
53065;DHT22;38948;48.376;-4.312;2022-08-11T18:12:02;27.90;54.20
53065;DHT22;38948;48.376;-4.312;2022-08-11T18:14:53;27.90;54.20
53065;DHT22;38948;48.376;-4.312;2022-08-11T18:17:40;27.90;54.20
53065;DHT22;38948;48.376;-4.312;2022-08-11T18:20:25;27.90;54.20
53065;DHT22;38948;48.376;-4.312;2022-08-11T18:23:20;27.90;54.10
53065;DHT22;38948;48.376;-4.312;2022-08-11T18:26:05;27.90;54.30
53065;DHT22;38948;48.376;-4.312;2022-08-11T18:28:54;27.90;54.60
53065;DHT22;38948;48.376;-4.312;2022-08-11T18:31:43;27.90;54.50
53065;DHT22;38948;48.376;-4.312;2022-08-11T18:34:31;27.90;54.60
53065;DHT22;38948;48.376;-4.312;2022-08-11T18:37:31;27.80;54.70
53065;DHT22;38948;48.376;-4.312;2022-08-11T18:40:25;27.80;54.80
53065;DHT22;38948;48.376;-4.312;2022-08-11T18:43:10;27.80;55.00
53065;DHT22;38948;48.376;-4.312;2022-08-11T18:46:01;27.80;55.10
53065;DHT22;38948;48.376;-4.312;2022-08-11T18:48:50;27.80;55.30
53065;DHT22;38948;48.376;-4.312;2022-08-11T18:51:37;27.80;55.30
53065;DHT22;38948;48.376;-4.312;2022-08-11T18:54:23;27.70;55.50
53065;DHT22;38948;48.376;-4.312;2022-08-11T18:57:10;27.80;55.50
53065;DHT22;38948;48.376;-4.312;2022-08-11T18:59:59;27.70;55.70
53065;DHT22;38948;48.376;-4.312;2022-08-11T19:02:45;27.70;55.80
53065;DHT22;38948;48.376;-4.312;2022-08-11T19:05:31;27.70;55.90
53065;DHT22;38948;48.376;-4.312;2022-08-11T19:08:18;27.70;56.00
53065;DHT22;38948;48.376;-4.312;2022-08-11T19:11:05;27.70;56.20
53065;DHT22;38948;48.376;-4.312;2022-08-11T19:13:52;27.70;56.30
53065;DHT22;38948;48.376;-4.312;2022-08-11T19:16:37;27.70;56.30
53065;DHT22;38948;48.376;-4.312;2022-08-11T19:19:25;27.60;56.50
53065;DHT22;38948;48.376;-4.312;2022-08-11T19:22:12;27.60;56.50
53065;DHT22;38948;48.376;-4.312;2022-08-11T19:24:58;27.60;56.70
53065;DHT22;38948;48.376;-4.312;2022-08-11T19:27:43;27.60;56.70
53065;DHT22;38948;48.376;-4.312;2022-08-11T19:30:30;27.60;56.80
53065;DHT22;38948;48.376;-4.312;2022-08-11T19:33:16;27.50;56.90
53065;DHT22;38948;48.376;-4.312;2022-08-11T19:36:01;27.50;56.90
53065;DHT22;38948;48.376;-4.312;2022-08-11T19:38:45;27.50;57.00
53065;DHT22;38948;48.376;-4.312;2022-08-11T19:41:31;27.50;57.10
53065;DHT22;38948;48.376;-4.312;2022-08-11T19:44:16;27.50;57.20
53065;DHT22;38948;48.376;-4.312;2022-08-11T19:47:01;27.40;57.20
53065;DHT22;38948;48.376;-4.312;2022-08-11T19:49:46;27.40;57.50
53065;DHT22;38948;48.376;-4.312;2022-08-11T19:52:33;27.40;57.40
53065;DHT22;38948;48.376;-4.312;2022-08-11T19:55:22;27.40;57.30
53065;DHT22;38948;48.376;-4.312;2022-08-11T19:58:08;27.40;57.10
53065;DHT22;38948;48.376;-4.312;2022-08-11T20:00:52;27.30;57.00
53065;DHT22;38948;48.376;-4.312;2022-08-11T20:03:36;27.30;56.90